Time;durP1;ratioP1;P1;durP2;ratioP2;P2;SDS_P1;SDS_P2;PMS_P1;PMS_P2;Temp;Humidity;BMP_temperature;BMP_pressure;BME280_temperature;BME280_humidity;BME280_pressure;Samples;Min_cycle;Max_cycle;Signal;HPM_P1;HPM_P2
2024/01/22 00:01:36;;;;;;;0.10;0.10;;;;;;;;;;5090768;28;20613;-75
2024/01/22 00:04:01;;;;;;;0.30;0.30;;;;;;;;;;5091820;28;20463;-75
2024/01/22 00:06:27;;;;;;;0.10;0.10;;;;;;;;;;5091081;28;20059;-75
2024/01/22 00:08:52;;;;;;;0.00;0.00;;;;;;;;;;5090748;28;20466;-74
2024/01/22 00:11:18;;;;;;;0.03;0.03;;;;;;;;;;5090700;28;20036;-74
2024/01/22 00:13:43;;;;;;;0.13;0.13;;;;;;;;;;5090253;28;20459;-75
2024/01/22 00:16:09;;;;;;;0.47;0.47;;;;;;;;;;5073815;28;20431;-73
2024/01/22 00:18:36;;;;;;;0.20;0.20;;;;;;;;;;5094147;28;20028;-75
2024/01/22 00:21:01;;;;;;;0.10;0.10;;;;;;;;;;5094412;28;20051;-74
2024/01/22 00:23:27;;;;;;;0.10;0.10;;;;;;;;;;5094485;28;20059;-73
2024/01/22 00:25:52;;;;;;;0.10;0.10;;;;;;;;;;5094192;28;20458;-74
2024/01/22 00:28:18;;;;;;;0.20;0.20;;;;;;;;;;5093947;28;20357;-73
2024/01/22 00:30:43;;;;;;;0.22;0.22;;;;;;;;;;5094097;28;20460;-74
2024/01/22 00:33:09;;;;;;;0.10;0.10;;;;;;;;;;5093980;28;20499;-74
2024/01/22 00:35:35;;;;;;;0.10;0.10;;;;;;;;;;5093712;28;20044;-73
2024/01/22 00:38:01;;;;;;;0.10;0.10;;;;;;;;;;5093871;28;20028;-73
2024/01/22 00:40:26;;;;;;;0.40;0.40;;;;;;;;;;5094144;28;20032;-74
2024/01/22 00:42:52;;;;;;;0.10;0.10;;;;;;;;;;5093662;28;20028;-74
2024/01/22 00:45:17;;;;;;;0.10;0.10;;;;;;;;;;5093844;28;20054;-73
2024/01/22 00:47:43;;;;;;;0.47;0.47;;;;;;;;;;5093441;28;20024;-73
2024/01/22 00:50:08;;;;;;;0.10;0.10;;;;;;;;;;5093713;28;20039;-73
2024/01/22 00:52:34;;;;;;;0.10;0.10;;;;;;;;;;5093909;28;20429;-72
2024/01/22 00:55:00;;;;;;;0.20;0.20;;;;;;;;;;5093582;28;20061;-72
2024/01/22 00:57:25;;;;;;;0.25;0.22;;;;;;;;;;5093782;28;20024;-72
2024/01/22 00:59:51;;;;;;;1.10;1.10;;;;;;;;;;5093700;28;20036;-73
2024/01/22 01:02:16;;;;;;;0.30;0.30;;;;;;;;;;5093495;28;20054;-73
2024/01/22 01:04:42;;;;;;;0.47;0.47;;;;;;;;;;5093657;28;20103;-72
2024/01/22 01:07:08;;;;;;;21.25;19.95;;;;;;;;;;5093659;28;20352;-74
2024/01/22 01:09:33;;;;;;;1.90;1.27;;;;;;;;;;5093452;28;20074;-73
2024/01/22 01:11:59;;;;;;;3.60;3.40;;;;;;;;;;5093652;28;20589;-72
2024/01/22 01:14:25;;;;;;;0.30;0.30;;;;;;;;;;5093451;28;20032;-74
2024/01/22 01:16:50;;;;;;;1.02;0.95;;;;;;;;;;5093424;28;20361;-73
2024/01/22 01:19:16;;;;;;;0.10;0.10;;;;;;;;;;5093489;28;20039;-72
2024/01/22 01:21:41;;;;;;;0.10;0.10;;;;;;;;;;5093656;28;20016;-73
2024/01/22 01:24:07;;;;;;;0.63;0.63;;;;;;;;;;5094345;28;20029;-72
2024/01/22 01:26:33;;;;;;;0.25;0.25;;;;;;;;;;5097537;28;20487;-73
2024/01/22 01:28:58;;;;;;;0.38;0.38;;;;;;;;;;5097355;28;20073;-73
2024/01/22 01:31:28;;;;;;;0.00;0.00;;;;;;;;;;5097304;28;20032;-73
2024/01/22 01:33:54;;;;;;;0.25;0.25;;;;;;;;;;5097503;28;20024;-73
2024/01/22 01:36:19;;;;;;;0.20;0.20;;;;;;;;;;5097281;28;20480;-73
2024/01/22 01:38:45;;;;;;;4.10;2.72;;;;;;;;;;5097345;28;20036;-72
2024/01/22 01:41:10;;;;;;;0.10;0.10;;;;;;;;;;5097279;28;20028;-73
2024/01/22 01:43:36;;;;;;;1.92;1.75;;;;;;;;;;5097505;28;20050;-73
2024/01/22 01:46:01;;;;;;;0.10;0.10;;;;;;;;;;5097023;28;20024;-75
2024/01/22 01:48:27;;;;;;;0.10;0.10;;;;;;;;;;5097217;28;20036;-74
2024/01/22 01:50:54;;;;;;;0.10;0.10;;;;;;;;;;5097257;28;20071;-73
2024/01/22 01:53:20;;;;;;;0.90;0.65;;;;;;;;;;5097088;28;20032;-74
2024/01/22 01:55:46;;;;;;;0.10;0.10;;;;;;;;;;5097052;28;20025;-73
2024/01/22 01:58:13;;;;;;;0.10;0.10;;;;;;;;;;5096994;28;20028;-74
2024/01/22 02:00:38;;;;;;;0.10;0.10;;;;;;;;;;5078593;28;20542;-75
2024/01/22 02:03:04;;;;;;;0.00;0.00;;;;;;;;;;5097311;28;20099;-75
2024/01/22 02:05:29;;;;;;;0.10;0.10;;;;;;;;;;5097396;28;20039;-73
2024/01/22 02:07:55;;;;;;;3.00;2.28;;;;;;;;;;5097076;28;20032;-73
2024/01/22 02:10:20;;;;;;;0.10;0.10;;;;;;;;;;5096612;28;20072;-75
2024/01/22 02:12:46;;;;;;;0.10;0.10;;;;;;;;;;5096739;28;20024;-74
2024/01/22 02:15:12;;;;;;;2.35;2.15;;;;;;;;;;5096571;28;20144;-74
2024/01/22 02:17:37;;;;;;;0.15;0.15;;;;;;;;;;5096665;28;20024;-74
2024/01/22 02:20:03;;;;;;;0.10;0.10;;;;;;;;;;5097033;28;20081;-75
2024/01/22 02:22:28;;;;;;;0.10;0.10;;;;;;;;;;5096809;28;20379;-73
2024/01/22 02:24:54;;;;;;;0.10;0.10;;;;;;;;;;5096441;28;20081;-74
2024/01/22 02:27:20;;;;;;;0.10;0.10;;;;;;;;;;5096335;28;20110;-73
2024/01/22 02:29:45;;;;;;;0.10;0.10;;;;;;;;;;5078099;28;20109;-73
2024/01/22 02:32:11;;;;;;;0.10;0.10;;;;;;;;;;5096329;28;20028;-73
2024/01/22 02:34:37;;;;;;;0.00;0.00;;;;;;;;;;5096152;28;20016;-72
2024/01/22 02:37:03;;;;;;;0.00;0.00;;;;;;;;;;5076449;28;20040;-73
2024/01/22 02:39:29;;;;;;;0.10;0.10;;;;;;;;;;5075974;28;20056;-75
2024/01/22 02:41:55;;;;;;;1.27;1.17;;;;;;;;;;5075893;28;20459;-73
2024/01/22 02:44:21;;;;;;;0.10;0.10;;;;;;;;;;5075824;28;20061;-73
2024/01/22 02:46:46;;;;;;;0.45;0.45;;;;;;;;;;5075841;28;20390;-73
2024/01/22 02:49:12;;;;;;;0.10;0.10;;;;;;;;;;5075680;28;20125;-72
2024/01/22 02:51:37;;;;;;;0.10;0.10;;;;;;;;;;5075746;28;20137;-73
2024/01/22 02:54:06;;;;;;;0.00;0.00;;;;;;;;;;5075649;28;20546;-73
2024/01/22 02:56:32;;;;;;;0.10;0.10;;;;;;;;;;5075675;28;20039;-73
2024/01/22 02:58:58;;;;;;;0.10;0.10;;;;;;;;;;5075439;28;20028;-73
2024/01/22 03:01:23;;;;;;;0.10;0.10;;;;;;;;;;5075545;28;20017;-73
2024/01/22 03:03:49;;;;;;;0.80;0.80;;;;;;;;;;5075513;28;20052;-73
2024/01/22 03:06:14;;;;;;;0.10;0.10;;;;;;;;;;5075452;28;20025;-73
2024/01/22 03:08:40;;;;;;;0.10;0.10;;;;;;;;;;5075406;28;20075;-74
2024/01/22 03:11:06;;;;;;;0.10;0.10;;;;;;;;;;5075322;28;20029;-74
2024/01/22 03:13:32;;;;;;;0.10;0.10;;;;;;;;;;5075201;28;20024;-75
2024/01/22 03:15:58;;;;;;;0.13;0.13;;;;;;;;;;5074500;28;20039;-73
2024/01/22 03:18:23;;;;;;;0.10;0.10;;;;;;;;;;5075367;28;20029;-74
2024/01/22 03:20:49;;;;;;;0.10;0.10;;;;;;;;;;5075137;28;20055;-74
2024/01/22 03:23:14;;;;;;;0.10;0.10;;;;;;;;;;5075154;28;20024;-74
2024/01/22 03:25:40;;;;;;;0.10;0.10;;;;;;;;;;5075040;28;20384;-73
2024/01/22 03:28:05;;;;;;;3.17;2.92;;;;;;;;;;5074779;28;20020;-73
2024/01/22 03:30:31;;;;;;;0.10;0.10;;;;;;;;;;5074917;28;20029;-73
2024/01/22 03:32:56;;;;;;;0.10;0.10;;;;;;;;;;5074919;28;20025;-72
2024/01/22 03:35:22;;;;;;;0.10;0.10;;;;;;;;;;5080980;28;20056;-72
2024/01/22 03:37:48;;;;;;;0.10;0.10;;;;;;;;;;5095107;28;20028;-72
2024/01/22 03:40:14;;;;;;;0.00;0.00;;;;;;;;;;5095051;28;20034;-73
2024/01/22 03:42:40;;;;;;;0.10;0.10;;;;;;;;;;5076756;28;20476;-73
2024/01/22 03:45:06;;;;;;;0.10;0.10;;;;;;;;;;5095196;28;20032;-73
2024/01/22 03:47:31;;;;;;;0.13;0.13;;;;;;;;;;5094565;28;20028;-72
2024/01/22 03:49:57;;;;;;;0.10;0.10;;;;;;;;;;5094712;28;20039;-74
2024/01/22 03:52:22;;;;;;;0.65;0.65;;;;;;;;;;5076867;28;20476;-74
2024/01/22 03:54:48;;;;;;;0.10;0.10;;;;;;;;;;5094729;28;20059;-73
2024/01/22 03:57:13;;;;;;;0.00;0.00;;;;;;;;;;5094622;28;20475;-74
2024/01/22 03:59:39;;;;;;;0.00;0.00;;;;;;;;;;5094621;28;20061;-74
2024/01/22 04:02:05;;;;;;;0.00;0.00;;;;;;;;;;5072878;28;20032;-78
2024/01/22 04:04:30;;;;;;;0.10;0.10;;;;;;;;;;5070540;28;20029;-73
2024/01/22 04:06:56;;;;;;;0.10;0.10;;;;;;;;;;5071518;28;20082;-74
2024/01/22 04:09:21;;;;;;;0.10;0.10;;;;;;;;;;5071725;28;20434;-74
2024/01/22 04:11:47;;;;;;;0.10;0.10;;;;;;;;;;5053652;28;20032;-75
2024/01/22 04:14:12;;;;;;;0.10;0.10;;;;;;;;;;5070127;28;20029;-75
2024/01/22 04:16:38;;;;;;;0.10;0.10;;;;;;;;;;5070593;28;20064;-75
2024/01/22 04:19:03;;;;;;;0.10;0.10;;;;;;;;;;5069903;28;20113;-76
2024/01/22 04:21:29;;;;;;;0.08;0.08;;;;;;;;;;5052576;28;20025;-74
2024/01/22 04:23:55;;;;;;;0.10;0.10;;;;;;;;;;5069973;28;20028;-76
2024/01/22 04:26:20;;;;;;;0.00;0.00;;;;;;;;;;5069813;28;20109;-74
2024/01/22 04:28:46;;;;;;;0.00;0.00;;;;;;;;;;5070070;28;20427;-74
2024/01/22 04:31:12;;;;;;;0.10;0.10;;;;;;;;;;5069976;28;20028;-74
2024/01/22 04:33:38;;;;;;;0.10;0.10;;;;;;;;;;5052429;28;20025;-75
2024/01/22 04:36:04;;;;;;;0.00;0.00;;;;;;;;;;5069981;28;20109;-74
2024/01/22 04:38:30;;;;;;;0.10;0.10;;;;;;;;;;5069853;28;20028;-77
2024/01/22 04:40:56;;;;;;;0.10;0.10;;;;;;;;;;5070109;28;20038;-74
2024/01/22 04:43:22;;;;;;;0.10;0.10;;;;;;;;;;5069695;28;20020;-74
2024/01/22 04:45:48;;;;;;;0.03;0.03;;;;;;;;;;5069736;28;20055;-75
2024/01/22 04:48:13;;;;;;;0.10;0.10;;;;;;;;;;5069476;28;20028;-75
2024/01/22 04:50:39;;;;;;;0.10;0.10;;;;;;;;;;5070043;28;20111;-75
2024/01/22 04:53:05;;;;;;;0.10;0.10;;;;;;;;;;5069890;28;20032;-73
2024/01/22 04:55:30;;;;;;;0.80;0.80;;;;;;;;;;5052271;28;20025;-76
2024/01/22 04:57:56;;;;;;;0.10;0.10;;;;;;;;;;5069578;28;20555;-74
2024/01/22 05:00:22;;;;;;;1.13;1.13;;;;;;;;;;5068725;28;20420;-75
2024/01/22 05:02:47;;;;;;;1.38;1.27;;;;;;;;;;5051891;28;20515;-76
2024/01/22 05:05:13;;;;;;;0.05;0.05;;;;;;;;;;5070153;28;20027;-75
2024/01/22 05:07:38;;;;;;;0.10;0.10;;;;;;;;;;5069390;28;20028;-74
2024/01/22 05:10:04;;;;;;;0.00;0.00;;;;;;;;;;5069517;28;20017;-75
2024/01/22 05:12:30;;;;;;;0.17;0.17;;;;;;;;;;5088878;28;20395;-74
2024/01/22 05:14:56;;;;;;;1.00;1.00;;;;;;;;;;5089730;28;20082;-73
2024/01/22 05:17:22;;;;;;;0.00;0.00;;;;;;;;;;5090076;28;20032;-75
2024/01/22 05:19:47;;;;;;;0.00;0.00;;;;;;;;;;5090215;28;20105;-74
2024/01/22 05:22:14;;;;;;;0.10;0.10;;;;;;;;;;5089288;28;20078;-74
2024/01/22 05:24:40;;;;;;;0.00;0.00;;;;;;;;;;5089984;28;20031;-76
2024/01/22 05:27:07;;;;;;;0.10;0.10;;;;;;;;;;5089799;28;20375;-76
2024/01/22 05:29:32;;;;;;;0.10;0.10;;;;;;;;;;5071624;28;20058;-76
2024/01/22 05:31:58;;;;;;;0.10;0.10;;;;;;;;;;5089486;28;20118;-74
2024/01/22 05:34:24;;;;;;;0.22;0.22;;;;;;;;;;5089442;28;20020;-73
2024/01/22 05:36:49;;;;;;;0.00;0.00;;;;;;;;;;5089120;28;20048;-75
2024/01/22 05:39:15;;;;;;;0.00;0.00;;;;;;;;;;5089329;28;20413;-76
2024/01/22 05:41:41;;;;;;;0.00;0.00;;;;;;;;;;5089332;28;20028;-76
2024/01/22 05:44:07;;;;;;;0.10;0.10;;;;;;;;;;5089140;28;20016;-74
2024/01/22 05:46:33;;;;;;;0.08;0.08;;;;;;;;;;5089308;28;20430;-75
2024/01/22 05:48:58;;;;;;;0.00;0.00;;;;;;;;;;5089680;28;20115;-73
2024/01/22 05:51:25;;;;;;;0.10;0.10;;;;;;;;;;5089255;28;20029;-75
2024/01/22 05:53:51;;;;;;;0.10;0.10;;;;;;;;;;5071076;28;20059;-74
2024/01/22 05:56:34;;;;;;;0.20;0.20;;;;;;;;;;5089429;28;20547;-73
2024/01/22 05:59:00;;;;;;;0.25;0.25;;;;;;;;;;5088860;28;20035;-73
2024/01/22 06:01:26;;;;;;;0.00;0.00;;;;;;;;;;5086585;28;20028;-73
2024/01/22 06:03:52;;;;;;;0.10;0.10;;;;;;;;;;5065524;28;20024;-76
2024/01/22 06:06:17;;;;;;;0.10;0.10;;;;;;;;;;5088977;28;20024;-73
2024/01/22 06:08:43;;;;;;;0.10;0.10;;;;;;;;;;5088984;28;20051;-72
2024/01/22 06:11:10;;;;;;;0.10;0.10;;;;;;;;;;5072807;28;20051;-74
2024/01/22 06:13:44;;;;;;;1.83;1.75;;;;;;;;;;5072944;28;20032;-74
2024/01/22 06:16:13;;;;;;;0.00;0.00;;;;;;;;;;5092778;28;20028;-73
2024/01/22 06:18:39;;;;;;;0.10;0.10;;;;;;;;;;5092476;28;20036;-74
2024/01/22 06:21:06;;;;;;;0.10;0.10;;;;;;;;;;5090150;28;20028;-73
2024/01/22 06:23:32;;;;;;;0.10;0.10;;;;;;;;;;5090618;28;20024;-74
2024/01/22 06:25:57;;;;;;;2.08;1.10;;;;;;;;;;5091942;28;20051;-75
2024/01/22 06:28:23;;;;;;;0.10;0.10;;;;;;;;;;5090312;28;20050;-74
2024/01/22 06:30:49;;;;;;;0.10;0.10;;;;;;;;;;5073485;28;20024;-75
2024/01/22 06:33:14;;;;;;;0.10;0.10;;;;;;;;;;5084665;28;20074;-75
2024/01/22 06:35:40;;;;;;;0.10;0.10;;;;;;;;;;5077643;28;20526;-75
2024/01/22 06:38:06;;;;;;;0.10;0.10;;;;;;;;;;5083022;28;20020;-74
2024/01/22 06:40:33;;;;;;;0.00;0.00;;;;;;;;;;5070026;28;20024;-77
2024/01/22 06:42:58;;;;;;;0.10;0.10;;;;;;;;;;5070648;28;20035;-75
2024/01/22 06:45:25;;;;;;;0.03;0.03;;;;;;;;;;5069502;28;20028;-74
2024/01/22 06:47:52;;;;;;;0.05;0.05;;;;;;;;;;5071001;28;20025;-74
2024/01/22 06:50:17;;;;;;;0.10;0.10;;;;;;;;;;5053707;28;20036;-75
2024/01/22 06:52:45;;;;;;;0.10;0.10;;;;;;;;;;5076572;28;20028;-75
2024/01/22 06:55:11;;;;;;;0.03;0.03;;;;;;;;;;5073701;28;20035;-74
2024/01/22 06:57:36;;;;;;;0.10;0.10;;;;;;;;;;5081710;28;20021;-73
2024/01/22 07:00:07;;;;;;;0.10;0.10;;;;;;;;;;5081435;28;20032;-75
2024/01/22 07:02:33;;;;;;;0.10;0.10;;;;;;;;;;5071393;28;20039;-78
2024/01/22 07:04:59;;;;;;;0.00;0.00;;;;;;;;;;5071574;28;20431;-74
2024/01/22 07:07:25;;;;;;;0.10;0.10;;;;;;;;;;5080555;28;20032;-74
2024/01/22 07:09:51;;;;;;;0.10;0.10;;;;;;;;;;5084661;28;20024;-74
2024/01/22 07:12:18;;;;;;;0.05;0.05;;;;;;;;;;5071699;28;20090;-74
2024/01/22 07:14:44;;;;;;;0.10;0.10;;;;;;;;;;5078949;28;20036;-78
2024/01/22 07:17:10;;;;;;;0.08;0.08;;;;;;;;;;5089038;28;20027;-76
2024/01/22 07:19:36;;;;;;;0.10;0.10;;;;;;;;;;5083871;28;20039;-73
2024/01/22 07:22:01;;;;;;;0.10;0.10;;;;;;;;;;5081302;28;20020;-76
2024/01/22 07:24:26;;;;;;;0.10;0.10;;;;;;;;;;5067495;28;20029;-73
2024/01/22 07:26:52;;;;;;;0.00;0.00;;;;;;;;;;5077052;28;20032;-74
2024/01/22 07:29:17;;;;;;;0.00;0.00;;;;;;;;;;5087440;28;20481;-74
2024/01/22 07:31:43;;;;;;;0.10;0.10;;;;;;;;;;5089556;28;20395;-74
2024/01/22 07:34:08;;;;;;;0.75;0.75;;;;;;;;;;5079802;28;20019;-73
2024/01/22 07:36:34;;;;;;;0.10;0.10;;;;;;;;;;5090336;28;20047;-75
2024/01/22 07:39:00;;;;;;;0.10;0.10;;;;;;;;;;5090536;28;20036;-74
2024/01/22 07:41:25;;;;;;;0.20;0.20;;;;;;;;;;5090291;28;20107;-74
2024/01/22 07:43:51;;;;;;;0.00;0.00;;;;;;;;;;5090929;28;20444;-78
2024/01/22 07:46:16;;;;;;;0.10;0.10;;;;;;;;;;5090788;28;20464;-78
2024/01/22 07:48:42;;;;;;;0.10;0.10;;;;;;;;;;5072334;28;20081;-77
2024/01/22 07:51:07;;;;;;;0.10;0.10;;;;;;;;;;5090116;28;20028;-77
2024/01/22 07:53:33;;;;;;;0.10;0.10;;;;;;;;;;5090517;28;20555;-77
2024/01/22 07:55:58;;;;;;;0.10;0.10;;;;;;;;;;5090060;28;20035;-76
2024/01/22 07:58:24;;;;;;;0.10;0.10;;;;;;;;;;5089859;28;20507;-77
2024/01/22 08:00:49;;;;;;;0.10;0.10;;;;;;;;;;5090304;28;20112;-77
2024/01/22 08:03:15;;;;;;;0.10;0.10;;;;;;;;;;5090080;28;20024;-78
2024/01/22 08:05:40;;;;;;;0.10;0.10;;;;;;;;;;5090348;28;20024;-77
2024/01/22 08:08:09;;;;;;;0.10;0.10;;;;;;;;;;5090116;28;20024;-77
2024/01/22 08:10:35;;;;;;;0.10;0.10;;;;;;;;;;5089885;28;20075;-77
2024/01/22 08:13:01;;;;;;;0.10;0.10;;;;;;;;;;5072180;28;20054;-77
2024/01/22 08:15:27;;;;;;;0.13;0.13;;;;;;;;;;5089789;28;20036;-78
2024/01/22 08:17:52;;;;;;;2.25;1.05;;;;;;;;;;5088841;28;20028;-77
2024/01/22 08:20:18;;;;;;;0.30;0.30;;;;;;;;;;5088335;28;20060;-82
2024/01/22 08:22:44;;;;;;;0.10;0.10;;;;;;;;;;5070184;28;20039;-78
2024/01/22 08:25:10;;;;;;;0.10;0.10;;;;;;;;;;5088850;28;20028;-79
2024/01/22 08:27:36;;;;;;;0.13;0.13;;;;;;;;;;5087963;28;20020;-77
2024/01/22 08:30:01;;;;;;;0.10;0.10;;;;;;;;;;5090025;28;20486;-78
2024/01/22 08:32:27;;;;;;;0.50;0.50;;;;;;;;;;5089399;28;20035;-79
2024/01/22 08:34:53;;;;;;;0.20;0.20;;;;;;;;;;5089573;28;20028;-78
2024/01/22 08:37:18;;;;;;;0.40;0.40;;;;;;;;;;5071666;28;20036;-80
2024/01/22 08:39:44;;;;;;;2.70;0.73;;;;;;;;;;5072076;28;20487;-79
2024/01/22 08:42:09;;;;;;;2.30;2.22;;;;;;;;;;5089744;28;20027;-80
2024/01/22 08:44:35;;;;;;;0.10;0.10;;;;;;;;;;5089869;28;20024;-78
2024/01/22 08:47:01;;;;;;;0.10;0.10;;;;;;;;;;5089325;28;20042;-79
2024/01/22 08:49:28;;;;;;;0.20;0.20;;;;;;;;;;5089692;28;20081;-78
2024/01/22 08:51:54;;;;;;;0.10;0.10;;;;;;;;;;5089492;28;20546;-79
2024/01/22 08:54:20;;;;;;;0.10;0.10;;;;;;;;;;5089213;28;20115;-78
2024/01/22 08:56:45;;;;;;;0.20;0.20;;;;;;;;;;5089377;28;20016;-79
2024/01/22 08:59:11;;;;;;;0.20;0.20;;;;;;;;;;5089532;28;20058;-79
2024/01/22 09:01:37;;;;;;;0.10;0.10;;;;;;;;;;5089681;28;20024;-78
2024/01/22 09:04:03;;;;;;;0.10;0.10;;;;;;;;;;5089276;28;20036;-78
2024/01/22 09:06:29;;;;;;;0.20;0.20;;;;;;;;;;5071531;28;20027;-78
2024/01/22 09:08:55;;;;;;;0.20;0.20;;;;;;;;;;5071413;28;20039;-78
2024/01/22 09:11:20;;;;;;;0.10;0.10;;;;;;;;;;5089265;28;20029;-80
2024/01/22 09:13:46;;;;;;;0.10;0.10;;;;;;;;;;5089382;28;20032;-80
2024/01/22 09:16:14;;;;;;;0.10;0.10;;;;;;;;;;5088625;28;20060;-79
2024/01/22 09:18:49;;;;;;;0.10;0.10;;;;;;;;;;5089324;28;20020;-79
2024/01/22 09:21:15;;;;;;;0.20;0.20;;;;;;;;;;5089371;28;20103;-79
2024/01/22 09:23:41;;;;;;;0.10;0.10;;;;;;;;;;5089492;28;20115;-79
2024/01/22 09:26:06;;;;;;;0.30;0.30;;;;;;;;;;5070707;28;20024;-80
2024/01/22 09:28:32;;;;;;;0.10;0.10;;;;;;;;;;5089048;28;20483;-78
2024/01/22 09:30:59;;;;;;;0.13;0.13;;;;;;;;;;5089288;28;20039;-79
2024/01/22 09:33:25;;;;;;;0.20;0.20;;;;;;;;;;5089156;28;20032;-77
2024/01/22 09:35:51;;;;;;;0.15;0.15;;;;;;;;;;5070709;28;20059;-79
2024/01/22 09:38:17;;;;;;;0.10;0.10;;;;;;;;;;5088825;28;20028;-78
2024/01/22 09:40:43;;;;;;;1.42;1.40;;;;;;;;;;5089004;28;20788;-79
2024/01/22 09:43:09;;;;;;;0.10;0.10;;;;;;;;;;5088692;28;20020;-79
2024/01/22 09:45:35;;;;;;;0.20;0.20;;;;;;;;;;5089595;28;20490;-78
2024/01/22 09:48:00;;;;;;;0.52;0.52;;;;;;;;;;5092521;28;20084;-79
2024/01/22 09:50:27;;;;;;;0.10;0.10;;;;;;;;;;5092759;28;20054;-79
2024/01/22 09:52:56;;;;;;;0.25;0.25;;;;;;;;;;5092728;28;20564;-79
2024/01/22 09:55:22;;;;;;;0.45;0.45;;;;;;;;;;5093095;28;20028;-78
2024/01/22 09:57:52;;;;;;;0.10;0.10;;;;;;;;;;5074394;28;20016;-77
2024/01/22 10:00:18;;;;;;;;;;;;;;;;;;5074664;28;20177;-79
2024/01/22 10:02:44;;;;;;;0.13;0.13;;;;;;;;;;5093008;28;19991;-77
2024/01/22 10:05:10;;;;;;;0.30;0.30;;;;;;;;;;5092911;28;20020;-78
2024/01/22 10:07:35;;;;;;;0.10;0.10;;;;;;;;;;5093262;28;20024;-76
2024/01/22 10:10:01;;;;;;;0.17;0.17;;;;;;;;;;5092797;28;20350;-80
2024/01/22 10:12:27;;;;;;;0.20;0.20;;;;;;;;;;5096103;28;20028;-84
2024/01/22 10:14:52;;;;;;;0.20;0.20;;;;;;;;;;5096338;28;20024;-79
2024/01/22 10:17:20;;;;;;;0.20;0.20;;;;;;;;;;5093873;28;20031;-79
2024/01/22 10:19:49;;;;;;;0.10;0.10;;;;;;;;;;5093177;28;20086;-79
2024/01/22 10:22:19;;;;;;;0.20;0.20;;;;;;;;;;5092306;28;20032;-80
2024/01/22 10:24:57;;;;;;;1.00;0.85;;;;;;;;;;5092510;28;20081;-80
2024/01/22 10:27:22;;;;;;;0.10;0.10;;;;;;;;;;5092996;28;20036;-80
2024/01/22 10:29:48;;;;;;;0.47;0.35;;;;;;;;;;5058129;28;20026;-79
2024/01/22 10:32:19;;;;;;;0.10;0.10;;;;;;;;;;5091744;28;20028;-79
2024/01/22 10:34:53;;;;;;;0.10;0.10;;;;;;;;;;5091893;28;20024;-79
2024/01/22 10:37:19;;;;;;;0.73;0.73;;;;;;;;;;5073567;28;20170;-78
2024/01/22 10:39:45;;;;;;;0.10;0.10;;;;;;;;;;5091962;28;20538;-79
2024/01/22 10:42:17;;;;;;;0.20;0.20;;;;;;;;;;5091997;28;20509;-81
2024/01/22 10:44:46;;;;;;;0.20;0.20;;;;;;;;;;5091990;28;20036;-78
2024/01/22 10:47:12;;;;;;;0.10;0.10;;;;;;;;;;5091806;28;20078;-77
2024/01/22 10:49:38;;;;;;;0.30;0.30;;;;;;;;;;5074079;28;20028;-79
2024/01/22 10:52:04;;;;;;;0.17;0.17;;;;;;;;;;5073818;28;20576;-76
2024/01/22 10:54:31;;;;;;;0.10;0.10;;;;;;;;;;5091744;28;20066;-81
2024/01/22 10:57:03;;;;;;;0.20;0.20;;;;;;;;;;5090213;28;20016;-78
2024/01/22 10:59:38;;;;;;;0.60;0.60;;;;;;;;;;5073566;28;20479;-78
2024/01/22 11:02:05;;;;;;;0.45;0.45;;;;;;;;;;5091387;28;20039;-77
2024/01/22 11:04:37;;;;;;;0.20;0.20;;;;;;;;;;5091424;28;20383;-76
2024/01/22 11:07:05;;;;;;;0.20;0.20;;;;;;;;;;5091345;28;20066;-76
2024/01/22 11:09:32;;;;;;;0.20;0.20;;;;;;;;;;5091563;28;20111;-77
2024/01/22 11:12:04;;;;;;;0.20;0.20;;;;;;;;;;5091547;28;20060;-78
2024/01/22 11:14:32;;;;;;;0.35;0.35;;;;;;;;;;5073386;28;20059;-78
2024/01/22 11:16:58;;;;;;;0.70;0.40;;;;;;;;;;5070717;28;20016;-79
2024/01/22 11:19:24;;;;;;;0.20;0.20;;;;;;;;;;5076850;28;20086;-78
2024/01/22 11:21:52;;;;;;;0.45;0.45;;;;;;;;;;5081436;28;20100;-79
2024/01/22 11:24:19;;;;;;;0.20;0.20;;;;;;;;;;5090804;28;20048;-77
2024/01/22 11:26:54;;;;;;;0.52;0.40;;;;;;;;;;5072685;28;20130;-78
2024/01/22 11:29:23;;;;;;;0.40;0.40;;;;;;;;;;5073089;28;20032;-78
2024/01/22 11:31:49;;;;;;;0.20;0.20;;;;;;;;;;5072637;28;20406;-78
2024/01/22 11:34:34;;;;;;;0.38;0.38;;;;;;;;;;5090572;28;20024;-77
2024/01/22 11:36:59;;;;;;;0.20;0.20;;;;;;;;;;5090741;28;20043;-78
2024/01/22 11:39:42;;;;;;;0.10;0.10;;;;;;;;;;5090807;28;20031;-78
2024/01/22 11:42:17;;;;;;;0.20;0.20;;;;;;;;;;5072208;28;20032;-76
2024/01/22 11:44:43;;;;;;;0.20;0.20;;;;;;;;;;5090492;28;20089;-77
2024/01/22 11:47:12;;;;;;;0.20;0.20;;;;;;;;;;5090592;28;20020;-75
2024/01/22 11:49:38;;;;;;;1.15;0.50;;;;;;;;;;5065398;28;20120;-80
2024/01/22 11:52:10;;;;;;;1.88;1.65;;;;;;;;;;5053272;28;20367;-77
2024/01/22 11:54:36;;;;;;;0.52;0.52;;;;;;;;;;5063681;28;20032;-77
2024/01/22 11:57:02;;;;;;;0.20;0.20;;;;;;;;;;5090578;28;20020;-79
2024/01/22 11:59:28;;;;;;;0.20;0.20;;;;;;;;;;5089113;28;20168;-77
2024/01/22 12:02:10;;;;;;;0.20;0.20;;;;;;;;;;5089354;28;20032;-79
2024/01/22 12:04:35;;;;;;;0.20;0.20;;;;;;;;;;5071925;28;20020;-78
2024/01/22 12:07:01;;;;;;;0.20;0.20;;;;;;;;;;5089244;28;20099;-79
2024/01/22 12:09:35;;;;;;;0.75;0.45;;;;;;;;;;5071509;28;20071;-77
2024/01/22 12:12:03;;;;;;;0.20;0.20;;;;;;;;;;5088315;28;20027;-77
2024/01/22 12:14:29;;;;;;;0.20;0.20;;;;;;;;;;5085350;28;20028;-78
2024/01/22 12:17:01;;;;;;;0.47;0.47;;;;;;;;;;5085359;28;20364;-76
2024/01/22 12:19:27;;;;;;;0.30;0.30;;;;;;;;;;5061994;28;20032;-78
2024/01/22 12:21:53;;;;;;;0.38;0.38;;;;;;;;;;5075536;28;20494;-78
2024/01/22 12:24:19;;;;;;;0.20;0.20;;;;;;;;;;5089766;28;20024;-78
2024/01/22 12:26:45;;;;;;;1.08;1.00;;;;;;;;;;5088613;28;20036;-78
2024/01/22 12:29:22;;;;;;;0.57;0.30;;;;;;;;;;5089076;28;20540;-76
2024/01/22 12:31:48;;;;;;;0.22;0.22;;;;;;;;;;5087624;28;20024;-77
2024/01/22 12:34:13;;;;;;;0.30;0.30;;;;;;;;;;5084610;28;20483;-77
2024/01/22 12:36:39;;;;;;;0.30;0.30;;;;;;;;;;5064734;28;20052;-78
2024/01/22 12:39:06;;;;;;;0.20;0.20;;;;;;;;;;5089765;28;20028;-75
2024/01/22 12:41:32;;;;;;;0.17;0.17;;;;;;;;;;5088057;28;20016;-78
2024/01/22 12:43:57;;;;;;;0.40;0.40;;;;;;;;;;5089135;28;20035;-77
2024/01/22 12:46:23;;;;;;;0.10;0.10;;;;;;;;;;5089648;28;20064;-75
2024/01/22 12:48:49;;;;;;;0.85;0.60;;;;;;;;;;5089663;28;20078;-77
2024/01/22 12:51:16;;;;;;;0.45;0.40;;;;;;;;;;5085343;28;20028;-76
2024/01/22 12:53:44;;;;;;;2.10;0.40;;;;;;;;;;5088653;28;20475;-78
2024/01/22 12:56:10;;;;;;;0.13;0.13;;;;;;;;;;5085802;28;20057;-78
2024/01/22 12:58:36;;;;;;;0.40;0.40;;;;;;;;;;5089134;28;20353;-78
2024/01/22 13:01:02;;;;;;;0.63;0.63;;;;;;;;;;5088556;28;20051;-79
2024/01/22 13:03:27;;;;;;;0.40;0.40;;;;;;;;;;5068125;28;20499;-77
2024/01/22 13:05:53;;;;;;;0.22;0.22;;;;;;;;;;5087835;28;20103;-78
2024/01/22 13:08:18;;;;;;;0.73;0.32;;;;;;;;;;5089170;28;20372;-78
2024/01/22 13:10:45;;;;;;;0.65;0.30;;;;;;;;;;5088833;28;20533;-79
2024/01/22 13:13:11;;;;;;;0.47;0.47;;;;;;;;;;5070993;28;20101;-77
2024/01/22 13:15:37;;;;;;;0.20;0.20;;;;;;;;;;5087492;28;20032;-79
2024/01/22 13:18:04;;;;;;;0.20;0.20;;;;;;;;;;5089034;28;20105;-77
2024/01/22 13:20:29;;;;;;;0.20;0.20;;;;;;;;;;5090579;28;20032;-76
2024/01/22 13:22:55;;;;;;;1.10;0.93;;;;;;;;;;5092405;28;20384;-77
2024/01/22 13:25:21;;;;;;;0.40;0.30;;;;;;;;;;5073535;28;20029;-76
2024/01/22 13:27:48;;;;;;;0.30;0.30;;;;;;;;;;5091854;28;20093;-77
2024/01/22 13:30:14;;;;;;;0.75;0.47;;;;;;;;;;5088726;28;20048;-78
2024/01/22 13:32:39;;;;;;;0.40;0.40;;;;;;;;;;5082694;28;20039;-77
2024/01/22 13:35:05;;;;;;;0.20;0.20;;;;;;;;;;5064888;28;20051;-78
2024/01/22 13:37:31;;;;;;;0.30;0.30;;;;;;;;;;5093323;28;20046;-80
2024/01/22 13:39:57;;;;;;;0.20;0.20;;;;;;;;;;5090450;28;20020;-79
2024/01/22 13:42:22;;;;;;;0.20;0.20;;;;;;;;;;5074621;28;20111;-76
2024/01/22 13:44:50;;;;;;;0.20;0.20;;;;;;;;;;5092967;28;20099;-75
2024/01/22 13:47:17;;;;;;;1.20;0.73;;;;;;;;;;5086517;28;20041;-76
2024/01/22 13:49:42;;;;;;;0.20;0.20;;;;;;;;;;5090974;28;20040;-76
2024/01/22 13:52:08;;;;;;;0.20;0.20;;;;;;;;;;5090917;28;20032;-75
2024/01/22 13:54:33;;;;;;;0.63;0.50;;;;;;;;;;5091416;28;20020;-78
2024/01/22 13:56:59;;;;;;;0.20;0.20;;;;;;;;;;5092386;28;20032;-77
2024/01/22 13:59:26;;;;;;;0.20;0.20;;;;;;;;;;5092447;28;20034;-78
2024/01/22 14:01:51;;;;;;;0.20;0.20;;;;;;;;;;5071536;28;20020;-77
2024/01/22 14:04:17;;;;;;;0.20;0.20;;;;;;;;;;5078119;28;20039;-78
2024/01/22 14:06:45;;;;;;;0.20;0.20;;;;;;;;;;5092176;28;20028;-79
2024/01/22 14:09:11;;;;;;;0.30;0.30;;;;;;;;;;5087929;28;20040;-77
2024/01/22 14:11:36;;;;;;;0.20;0.20;;;;;;;;;;5070620;28;20391;-76
2024/01/22 14:14:05;;;;;;;0.10;0.10;;;;;;;;;;5082371;28;20123;-80
2024/01/22 14:16:30;;;;;;;0.20;0.20;;;;;;;;;;5092556;28;20310;-76
2024/01/22 14:18:56;;;;;;;0.80;0.65;;;;;;;;;;5092669;28;20046;-75
2024/01/22 14:21:22;;;;;;;0.30;0.30;;;;;;;;;;5074315;28;20271;-76
2024/01/22 14:23:47;;;;;;;0.55;0.40;;;;;;;;;;5092286;28;20024;-76
2024/01/22 14:26:13;;;;;;;2.72;0.38;;;;;;;;;;5089744;28;20029;-77
2024/01/22 14:28:38;;;;;;;0.20;0.20;;;;;;;;;;5088474;28;20028;-76
2024/01/22 14:31:04;;;;;;;0.20;0.20;;;;;;;;;;5071979;28;20055;-75
2024/01/22 14:33:30;;;;;;;0.20;0.20;;;;;;;;;;5070749;28;20388;-77
2024/01/22 14:35:58;;;;;;;0.22;0.22;;;;;;;;;;5081314;28;20048;-76
2024/01/22 14:38:25;;;;;;;0.30;0.30;;;;;;;;;;5090755;28;20074;-77